createdAt,value
2022-09-21T00:01:06.442Z,85.88
2022-09-21T00:03:33.400Z,85.43
2022-09-21T00:06:08.684Z,85.79
2022-09-21T00:08:35.311Z,85.08
2022-09-21T00:11:03.476Z,84.89
2022-09-21T00:13:30.401Z,85.22
2022-09-21T00:15:57.401Z,84.68
2022-09-21T00:18:24.327Z,84.77
2022-09-21T00:20:52.732Z,84.74
2022-09-21T00:23:20.106Z,85.32
2022-09-21T00:25:47.107Z,85.27
2022-09-21T00:28:13.726Z,85.33
2022-09-21T00:30:40.332Z,85.23
2022-09-21T00:33:07.134Z,85.53
2022-09-21T00:35:33.936Z,85.43
2022-09-21T00:38:02.471Z,85.17
2022-09-21T00:40:30.096Z,85.74
2022-09-21T00:43:14.262Z,85.79
2022-09-21T00:45:42.002Z,85.13
2022-09-21T00:48:09.390Z,85.03
2022-09-21T00:50:38.829Z,85.12
2022-09-21T00:53:05.843Z,85.19
2022-09-21T00:55:43.396Z,84.67
2022-09-21T00:58:19.480Z,84.55
2022-09-21T01:00:46.245Z,84.43
2022-09-21T01:03:13.714Z,84.30
2022-09-21T01:05:40.413Z,84.50
2022-09-21T01:08:13.551Z,84.96
2022-09-21T01:11:01.748Z,85.11
2022-09-21T01:14:07.967Z,85.27
2022-09-21T01:16:49.887Z,86.00
2022-09-21T01:19:34.841Z,85.82
2022-09-21T01:22:21.793Z,85.67
2022-09-21T01:24:51.643Z,86.54
2022-09-21T01:27:24.475Z,86.31
2022-09-21T01:30:05.639Z,86.30
2022-09-21T01:32:56.003Z,86.61
2022-09-21T01:35:45.114Z,85.97
2022-09-21T01:38:19.835Z,86.01
2022-09-21T01:40:52.556Z,86.26
2022-09-21T01:43:25.433Z,86.45
2022-09-21T01:45:55.497Z,86.22
2022-09-21T01:48:24.438Z,86.55
2022-09-21T01:50:55.475Z,86.39
2022-09-21T01:53:32.280Z,86.13
2022-09-21T01:56:05.573Z,86.21
2022-09-21T01:58:39.253Z,86.12
2022-09-21T02:01:09.326Z,85.78
2022-09-21T02:03:40.124Z,85.05
2022-09-21T02:06:08.190Z,84.64
2022-09-21T02:08:36.470Z,84.21
2022-09-21T02:11:05.472Z,84.05
2022-09-21T02:13:39.651Z,83.39
2022-09-21T02:16:10.875Z,83.41
2022-09-21T02:19:12.296Z,83.00
2022-09-21T02:22:01.489Z,83.14
2022-09-21T02:25:13.742Z,82.99
2022-09-21T02:27:55.875Z,82.89
2022-09-21T02:30:25.392Z,82.64
2022-09-21T02:33:06.423Z,82.52
2022-09-21T02:35:38.983Z,82.19
2022-09-21T02:38:20.047Z,82.43
2022-09-21T02:40:56.809Z,82.42
2022-09-21T02:43:31.786Z,82.54
2022-09-21T02:46:07.547Z,82.36
2022-09-21T02:48:43.864Z,83.04
2022-09-21T02:51:15.998Z,83.26
2022-09-21T02:53:44.751Z,83.37
2022-09-21T02:56:13.890Z,83.21
2022-09-21T02:58:48.050Z,83.00
2022-09-21T03:01:16.291Z,83.09
2022-09-21T03:03:43.184Z,83.45
2022-09-21T03:06:09.845Z,83.74
2022-09-21T03:08:36.616Z,83.50
2022-09-21T03:11:03.442Z,83.71
2022-09-21T03:13:30.258Z,83.97
2022-09-21T03:16:02.297Z,84.04
2022-09-21T03:18:29.777Z,83.36
2022-09-21T03:20:56.487Z,84.05
2022-09-21T03:23:23.386Z,83.61
2022-09-21T03:25:52.334Z,83.79
2022-09-21T03:28:19.893Z,83.61
2022-09-21T03:30:47.893Z,83.76
2022-09-21T03:33:14.512Z,84.14
2022-09-21T03:35:41.347Z,83.97
2022-09-21T03:38:08.465Z,84.11
2022-09-21T03:40:35.585Z,84.45
2022-09-21T03:43:02.470Z,84.05
2022-09-21T03:45:29.212Z,84.63
2022-09-21T03:48:00.392Z,84.99
2022-09-21T03:50:28.838Z,84.66
2022-09-21T03:52:56.633Z,85.55
2022-09-21T03:55:23.642Z,85.31
2022-09-21T03:57:50.589Z,85.52
2022-09-21T04:00:18.104Z,85.94
2022-09-21T04:02:44.906Z,86.03
2022-09-21T04:05:14.961Z,85.67
2022-09-21T04:07:43.124Z,85.67
2022-09-21T04:10:15.655Z,85.95
2022-09-21T04:12:43.835Z,85.92
2022-09-21T04:15:19.706Z,85.75
2022-09-21T04:17:47.131Z,85.96
2022-09-21T04:20:13.824Z,86.28
2022-09-21T04:22:43.527Z,86.43
2022-09-21T04:25:10.960Z,86.44
2022-09-21T04:27:37.740Z,86.05
2022-09-21T04:30:06.161Z,85.93
2022-09-21T04:32:33.003Z,85.74
2022-09-21T04:34:59.663Z,86.18
2022-09-21T04:37:26.700Z,85.60
2022-09-21T04:39:53.653Z,85.38
2022-09-21T04:42:20.355Z,84.69
2022-09-21T04:44:47.006Z,84.64
2022-09-21T04:47:13.652Z,84.10
2022-09-21T04:49:40.338Z,83.64
2022-09-21T04:52:07.021Z,83.74
2022-09-21T04:54:33.632Z,82.94
2022-09-21T04:57:00.311Z,81.09
2022-09-21T04:59:26.965Z,79.60
2022-09-21T05:01:53.646Z,79.48
2022-09-21T05:04:20.270Z,77.38
2022-09-21T05:06:47.058Z,71.51
2022-09-21T05:09:32.122Z,65.03
2022-09-21T05:11:59.726Z,60.76
2022-09-21T05:14:26.400Z,59.08
2022-09-21T05:16:53.107Z,56.00
2022-09-21T05:19:19.912Z,54.61
2022-09-21T05:21:46.579Z,55.01
2022-09-21T05:24:13.307Z,52.36
2022-09-21T05:26:39.964Z,51.48
2022-09-21T05:29:07.029Z,50.70
2022-09-21T05:31:47.822Z,50.30
2022-09-21T05:34:26.349Z,49.66
2022-09-21T05:37:01.325Z,50.70
2022-09-21T05:39:28.247Z,49.83
2022-09-21T05:41:55.692Z,46.97
2022-09-21T05:44:22.672Z,46.42
2022-09-21T05:47:21.618Z,48.92
2022-09-21T05:49:54.155Z,45.99
2022-09-21T05:52:20.907Z,46.39
2022-09-21T05:55:15.421Z,45.28
2022-09-21T05:57:55.486Z,48.98
2022-09-21T06:00:23.443Z,47.58
2022-09-21T06:03:20.802Z,47.47
2022-09-21T06:05:47.680Z,47.58
2022-09-21T06:08:14.335Z,44.75
2022-09-21T06:10:41.129Z,45.07
2022-09-21T06:13:08.306Z,46.95
2022-09-21T06:15:38.584Z,45.50
2022-09-21T06:18:06.131Z,47.03
2022-09-21T06:20:33.385Z,45.47
2022-09-21T06:23:01.863Z,47.36
2022-09-21T06:25:28.578Z,49.51
2022-09-21T06:27:55.374Z,49.79
2022-09-21T06:30:22.076Z,50.86
2022-09-21T06:32:48.766Z,48.69
2022-09-21T06:35:15.507Z,46.58
2022-09-21T06:37:42.629Z,47.24
2022-09-21T06:40:09.909Z,48.08
2022-09-21T06:42:36.554Z,46.76
2022-09-21T06:45:03.828Z,47.38
2022-09-21T06:47:30.478Z,47.81
2022-09-21T06:49:57.327Z,49.35
2022-09-21T06:52:24.119Z,45.77
2022-09-21T06:54:50.725Z,47.24
2022-09-21T06:57:17.887Z,47.82
2022-09-21T06:59:44.507Z,49.13
2022-09-21T07:02:12.847Z,52.41
2022-09-21T07:04:39.712Z,49.14
2022-09-21T07:07:06.388Z,48.64
2022-09-21T07:12:19.949Z,48.66
2022-09-21T07:14:46.672Z,50.64
2022-09-21T07:17:15.631Z,49.88
2022-09-21T07:19:42.625Z,48.93
2022-09-21T07:22:09.381Z,51.85
2022-09-21T07:24:36.027Z,53.43
2022-09-21T07:27:02.644Z,54.26
2022-09-21T07:29:29.521Z,53.99
2022-09-21T07:31:56.241Z,53.08
2022-09-21T07:34:22.936Z,51.94
2022-09-21T07:36:49.621Z,50.90
2022-09-21T07:39:16.256Z,50.02
2022-09-21T07:41:42.874Z,50.08
2022-09-21T07:44:09.550Z,49.27
2022-09-21T07:46:37.048Z,49.41
2022-09-21T07:49:05.292Z,48.03
2022-09-21T07:51:32.190Z,48.66
2022-09-21T07:53:58.829Z,51.14
2022-09-21T07:56:25.842Z,48.61
2022-09-21T07:59:08.078Z,49.30
2022-09-21T08:01:39.586Z,50.54
2022-09-21T08:04:10.929Z,49.37
2022-09-21T08:06:40.419Z,49.14
2022-09-21T08:09:07.438Z,48.40
2022-09-21T08:11:34.435Z,48.10
2022-09-21T08:14:02.826Z,48.95
2022-09-21T08:16:31.372Z,48.40
2022-09-21T08:18:58.353Z,48.95
2022-09-21T08:21:24.984Z,48.55
2022-09-21T08:23:51.690Z,47.33
2022-09-21T08:26:20.551Z,48.23
2022-09-21T08:28:49.279Z,46.32
2022-09-21T08:31:21.194Z,48.24
2022-09-21T08:33:49.819Z,46.99
2022-09-21T08:36:17.390Z,48.05
2022-09-21T08:38:44.254Z,47.15
2022-09-21T08:41:17.090Z,45.96
2022-09-21T08:43:48.206Z,47.22
2022-09-21T08:46:23.069Z,49.48
2022-09-21T08:49:08.209Z,49.21
2022-09-21T08:51:38.429Z,50.25
2022-09-21T08:54:29.308Z,50.73
2022-09-21T08:57:11.532Z,51.54
2022-09-21T08:59:42.941Z,49.21
2022-09-21T09:02:24.795Z,48.84
2022-09-21T09:05:10.582Z,49.13
2022-09-21T09:08:05.403Z,48.84
2022-09-21T09:11:06.364Z,49.13
2022-09-21T09:13:57.046Z,48.44
2022-09-21T09:16:46.966Z,48.84
2022-09-21T09:19:39.924Z,49.61
2022-09-21T09:22:12.428Z,49.70
2022-09-21T09:24:43.695Z,49.20
2022-09-21T09:27:20.652Z,51.12
2022-09-21T09:30:21.612Z,50.36
2022-09-21T09:32:56.953Z,50.86
2022-09-21T09:35:45.985Z,49.19
2022-09-21T09:38:27.878Z,49.24
2022-09-21T09:41:13.361Z,49.69
2022-09-21T09:44:17.750Z,50.57
2022-09-21T09:47:06.163Z,49.40
2022-09-21T09:49:51.752Z,48.54
2022-09-21T09:52:18.549Z,47.73
2022-09-21T09:54:45.554Z,47.53
2022-09-21T09:57:13.031Z,47.79
2022-09-21T09:59:54.420Z,47.99
2022-09-21T10:02:24.067Z,46.91
2022-09-21T10:05:05.925Z,47.90
2022-09-21T10:07:41.340Z,48.41
2022-09-21T10:10:33.330Z,48.66
2022-09-21T10:13:09.825Z,48.73
2022-09-21T10:15:41.946Z,48.57
2022-09-21T10:18:38.165Z,48.46
2022-09-21T10:21:15.695Z,48.18
2022-09-21T10:23:47.693Z,47.84
2022-09-21T10:26:15.098Z,48.13
2022-09-21T10:28:58.257Z,47.73
2022-09-21T10:31:30.197Z,47.66
2022-09-21T10:34:13.217Z,46.38
2022-09-21T10:36:40.694Z,45.28
2022-09-21T10:39:23.619Z,47.28
2022-09-21T10:41:56.982Z,45.72
2022-09-21T10:44:27.407Z,46.71
2022-09-21T10:49:28.742Z,47.40
2022-09-21T10:51:58.317Z,46.70
2022-09-21T10:54:32.650Z,46.87
2022-09-21T10:57:04.207Z,45.94
2022-09-21T10:59:37.091Z,47.31
2022-09-21T11:02:26.638Z,45.42
2022-09-21T11:04:59.035Z,45.85
2022-09-21T11:07:39.875Z,45.81
2022-09-21T11:10:15.446Z,45.87
2022-09-21T11:13:16.975Z,47.07
2022-09-21T11:15:54.780Z,46.37
2022-09-21T11:18:24.203Z,48.24
2022-09-21T11:21:06.005Z,47.09
2022-09-21T11:23:44.170Z,46.89
2022-09-21T11:26:46.079Z,46.83
2022-09-21T11:29:23.303Z,46.38
2022-09-21T11:32:05.843Z,45.91
2022-09-21T11:35:03.848Z,45.47
2022-09-21T11:38:09.939Z,46.19
2022-09-21T11:40:42.535Z,46.87
2022-09-21T11:43:29.626Z,46.51
2022-09-21T11:46:07.728Z,46.77
2022-09-21T11:48:41.120Z,46.69
2022-09-21T11:51:49.717Z,47.28
2022-09-21T11:54:46.757Z,44.91
2022-09-21T11:57:19.085Z,44.38
2022-09-21T12:00:09.511Z,44.98
2022-09-21T12:02:42.326Z,43.54
2022-09-21T12:05:19.492Z,43.80
2022-09-21T12:07:49.743Z,45.33
2022-09-21T12:10:39.680Z,45.23
2022-09-21T12:13:28.242Z,44.64
2022-09-21T12:15:56.227Z,44.53
2022-09-21T12:18:47.372Z,44.33
2022-09-21T12:21:28.932Z,44.36
2022-09-21T12:24:01.479Z,41.62
2022-09-21T12:26:38.802Z,43.90
2022-09-21T12:29:30.903Z,44.52
2022-09-21T12:32:04.897Z,44.27
2022-09-21T12:34:42.072Z,44.69
2022-09-21T12:37:17.105Z,43.42
2022-09-21T12:39:54.120Z,44.30
2022-09-21T12:42:35.023Z,44.37
2022-09-21T12:45:07.974Z,45.15
2022-09-21T12:47:37.694Z,45.68
2022-09-21T12:50:36.026Z,42.71
2022-09-21T12:53:03.969Z,43.42
2022-09-21T12:55:33.406Z,43.42
2022-09-21T12:58:23.597Z,43.46
2022-09-21T13:01:02.162Z,41.94
2022-09-21T13:03:31.898Z,42.06
2022-09-21T13:06:22.983Z,42.98
2022-09-21T13:08:50.690Z,44.76
2022-09-21T13:11:21.565Z,42.44
2022-09-21T13:13:52.953Z,42.38
2022-09-21T13:16:27.804Z,42.69
2022-09-21T13:19:16.115Z,43.04
2022-09-21T13:21:44.263Z,42.72
2022-09-21T13:24:30.524Z,42.75
2022-09-21T13:27:06.588Z,41.82
2022-09-21T13:29:35.974Z,42.12
2022-09-21T13:32:11.708Z,43.23
2022-09-21T13:34:43.498Z,44.27
2022-09-21T13:37:11.128Z,44.30
2022-09-21T13:39:43.286Z,44.01
2022-09-21T13:42:28.459Z,44.62
2022-09-21T13:44:56.054Z,44.64
2022-09-21T13:47:34.611Z,45.85
2022-09-21T13:50:11.635Z,46.10
2022-09-21T13:52:45.398Z,46.39
2022-09-21T13:55:21.470Z,47.23
2022-09-21T13:57:54.443Z,47.19
2022-09-21T14:00:41.187Z,48.37
2022-09-21T14:03:39.348Z,48.86
2022-09-21T14:06:16.621Z,49.23
2022-09-21T14:09:00.433Z,48.53
2022-09-21T14:11:40.619Z,48.10
2022-09-21T14:14:33.011Z,47.29
2022-09-21T14:17:01.364Z,47.13
2022-09-21T14:19:29.722Z,47.98
2022-09-21T14:22:06.222Z,48.42
2022-09-21T14:24:43.902Z,48.53
2022-09-21T14:27:41.141Z,47.77
2022-09-21T14:30:20.211Z,48.24
2022-09-21T14:33:02.261Z,47.94
2022-09-21T14:35:37.614Z,47.29
2022-09-21T14:38:24.127Z,47.21
2022-09-21T14:40:54.734Z,47.31
2022-09-21T14:43:28.199Z,47.01
2022-09-21T14:46:03.784Z,47.14
2022-09-21T14:48:42.553Z,46.48
2022-09-21T14:51:41.913Z,47.27
2022-09-21T14:54:26.224Z,47.64
2022-09-21T14:57:02.140Z,47.94
2022-09-21T14:59:41.021Z,48.71
2022-09-21T15:02:22.237Z,49.25
2022-09-21T15:05:04.276Z,49.33
2022-09-21T15:08:10.332Z,49.88
2022-09-21T15:10:58.071Z,49.93
2022-09-21T15:13:41.149Z,49.83
2022-09-21T15:16:26.759Z,49.77
2022-09-21T15:19:16.357Z,49.67
2022-09-21T15:21:51.904Z,50.42
2022-09-21T15:24:25.001Z,49.78
2022-09-21T15:26:54.745Z,48.82
2022-09-21T15:29:27.585Z,48.00
2022-09-21T15:31:55.283Z,47.29
2022-09-21T15:34:23.460Z,47.79
2022-09-21T15:36:52.132Z,47.17
2022-09-21T15:39:30.356Z,47.95
2022-09-21T15:42:09.347Z,47.78
2022-09-21T15:44:38.504Z,48.06
2022-09-21T15:47:12.630Z,47.24
2022-09-21T15:49:40.442Z,48.05
2022-09-21T15:52:13.020Z,47.50
2022-09-21T15:55:09.282Z,48.34
2022-09-21T15:57:41.803Z,48.76
2022-09-21T16:00:14.811Z,49.04
2022-09-21T16:02:50.748Z,50.32
2022-09-21T16:05:22.429Z,51.05
2022-09-21T16:07:49.243Z,53.68
2022-09-21T16:10:31.169Z,53.05
2022-09-21T16:13:33.032Z,54.95
2022-09-21T16:16:07.643Z,54.08
2022-09-21T16:18:43.139Z,55.38
2022-09-21T16:21:27.578Z,55.89
2022-09-21T16:23:57.477Z,55.44
2022-09-21T16:26:24.123Z,56.98
2022-09-21T16:29:17.052Z,56.18
2022-09-21T16:31:50.051Z,56.23
2022-09-21T16:34:17.701Z,56.44
2022-09-21T16:36:45.759Z,56.82
2022-09-21T16:39:15.501Z,57.66
2022-09-21T16:41:55.122Z,58.20
2022-09-21T16:44:26.035Z,57.84
2022-09-21T16:46:59.339Z,58.18
2022-09-21T16:49:30.635Z,59.42
2022-09-21T16:51:58.304Z,60.29
2022-09-21T16:54:27.147Z,60.96
2022-09-21T16:56:57.553Z,61.97
2022-09-21T16:59:25.361Z,62.73
2022-09-21T17:01:57.347Z,63.15
2022-09-21T17:04:28.961Z,63.72
2022-09-21T17:06:56.550Z,64.41
2022-09-21T17:09:33.716Z,65.43
2022-09-21T17:12:02.122Z,66.01
2022-09-21T17:14:35.449Z,66.67
2022-09-21T17:17:19.325Z,67.47
2022-09-21T17:19:49.887Z,67.47
2022-09-21T17:22:18.231Z,67.28
2022-09-21T17:24:51.757Z,67.11
2022-09-21T17:27:23.853Z,66.75
2022-09-21T17:29:51.100Z,66.73
2022-09-21T17:32:22.575Z,66.75
2022-09-21T17:35:18.880Z,66.49
2022-09-21T17:37:46.075Z,66.83
2022-09-21T17:40:13.699Z,66.81
2022-09-21T17:42:46.512Z,66.83
2022-09-21T17:45:37.643Z,66.78
2022-09-21T17:48:05.458Z,66.99
2022-09-21T17:50:32.297Z,67.03
2022-09-21T17:53:18.215Z,67.15
2022-09-21T17:55:54.571Z,67.39
2022-09-21T17:59:06.133Z,67.77
2022-09-21T18:01:39.715Z,68.50
2022-09-21T18:04:08.348Z,68.64
2022-09-21T18:06:35.406Z,69.18
2022-09-21T18:09:02.617Z,69.21
2022-09-21T18:11:36.218Z,69.89
2022-09-21T18:14:15.401Z,69.78
2022-09-21T18:17:20.848Z,70.70
2022-09-21T18:20:21.377Z,70.82
2022-09-21T18:23:21.647Z,71.26
2022-09-21T18:25:56.503Z,71.25
2022-09-21T18:28:40.027Z,71.30
2022-09-21T18:31:21.964Z,72.00
2022-09-21T18:33:56.811Z,72.24
2022-09-21T18:36:37.612Z,72.22
2022-09-21T18:39:43.254Z,72.21
2022-09-21T18:42:38.047Z,72.30
2022-09-21T18:45:27.273Z,72.67
2022-09-21T18:48:13.341Z,72.88
2022-09-21T18:50:57.432Z,73.33
2022-09-21T18:53:52.884Z,73.49
2022-09-21T18:56:19.924Z,74.09
2022-09-21T18:58:46.872Z,74.57
2022-09-21T19:01:16.510Z,74.74
2022-09-21T19:03:43.933Z,74.49
2022-09-21T19:06:48.209Z,74.31
2022-09-21T19:09:38.179Z,73.97
2022-09-21T19:12:07.701Z,73.93
2022-09-21T19:15:12.509Z,73.79
2022-09-21T19:17:51.054Z,73.40
2022-09-21T19:20:39.436Z,73.41
2022-09-21T19:23:33.766Z,73.04
2022-09-21T19:26:23.646Z,72.57
2022-09-21T19:29:28.186Z,72.16
2022-09-21T19:31:55.087Z,71.83
2022-09-21T19:34:22.034Z,71.98
2022-09-21T19:36:48.851Z,72.33
2022-09-21T19:39:16.295Z,72.21
2022-09-21T19:42:02.139Z,71.40
2022-09-21T19:44:47.898Z,71.85
2022-09-21T19:47:26.329Z,71.65
2022-09-21T19:49:54.686Z,71.78
2022-09-21T19:52:34.469Z,72.11
2022-09-21T19:55:20.902Z,72.16
2022-09-21T19:58:06.666Z,71.47
2022-09-21T20:00:33.662Z,71.74
2022-09-21T20:03:08.027Z,71.75
2022-09-21T20:05:59.136Z,71.83
2022-09-21T20:08:52.501Z,72.31
2022-09-21T20:11:41.429Z,71.74
2022-09-21T20:14:31.351Z,71.25
2022-09-21T20:17:04.476Z,71.56
2022-09-21T20:19:58.577Z,71.57
2022-09-21T20:22:35.449Z,72.04
2022-09-21T20:25:11.704Z,72.12
2022-09-21T20:27:49.197Z,72.01
2022-09-21T20:30:17.777Z,71.69
2022-09-21T20:32:48.786Z,71.72
2022-09-21T20:35:18.099Z,72.05
2022-09-21T20:37:45.473Z,72.38
2022-09-21T20:40:13.693Z,72.58
2022-09-21T20:42:41.444Z,72.95
2022-09-21T20:45:10.186Z,73.12
2022-09-21T20:47:37.214Z,73.30
2022-09-21T20:50:05.214Z,72.48
2022-09-21T20:52:31.891Z,72.72
2022-09-21T20:54:58.538Z,72.88
2022-09-21T20:57:25.540Z,72.86
2022-09-21T20:59:52.192Z,72.90
2022-09-21T21:02:18.978Z,73.29
2022-09-21T21:04:45.616Z,73.40
2022-09-21T21:07:12.301Z,73.21
2022-09-21T21:09:38.939Z,73.27
2022-09-21T21:12:05.726Z,73.67
2022-09-21T21:14:32.403Z,73.74
2022-09-21T21:16:59.142Z,74.00
2022-09-21T21:19:26.194Z,74.67
2022-09-21T21:21:52.801Z,74.51
2022-09-21T21:24:38.459Z,74.44
2022-09-21T21:27:16.993Z,74.73
2022-09-21T21:29:50.290Z,74.88
2022-09-21T21:32:18.793Z,74.72
2022-09-21T21:34:45.764Z,75.18
2022-09-21T21:37:13.921Z,75.21
2022-09-21T21:39:40.621Z,75.32
2022-09-21T21:42:07.633Z,75.13
2022-09-21T21:44:34.271Z,75.22
2022-09-21T21:47:15.449Z,75.59
2022-09-21T21:49:48.431Z,75.45
2022-09-21T21:52:15.637Z,75.52
2022-09-21T21:54:42.354Z,75.18
2022-09-21T21:57:10.151Z,75.50
2022-09-21T21:59:37.111Z,75.39
2022-09-21T22:02:04.865Z,75.63
2022-09-21T22:04:32.023Z,75.65
2022-09-21T22:06:58.641Z,75.80
2022-09-21T22:09:25.900Z,75.23
2022-09-21T22:11:52.622Z,75.28
2022-09-21T22:14:19.486Z,75.52
2022-09-21T22:16:46.524Z,75.84
2022-09-21T22:19:13.325Z,75.77
2022-09-21T22:21:46.036Z,75.47
2022-09-21T22:24:14.954Z,75.92
2022-09-21T22:26:44.243Z,75.68
2022-09-21T22:29:13.415Z,75.39
2022-09-21T22:31:43.396Z,75.37
2022-09-21T22:34:12.475Z,75.18
2022-09-21T22:36:39.997Z,75.06
2022-09-21T22:39:08.327Z,74.55
2022-09-21T22:41:38.023Z,74.68
2022-09-21T22:44:05.148Z,74.65
2022-09-21T22:46:32.790Z,74.17
2022-09-21T22:49:00.603Z,74.76
2022-09-21T22:51:28.652Z,74.93
2022-09-21T22:53:55.803Z,75.31
2022-09-21T22:56:28.006Z,75.61
2022-09-21T22:58:58.296Z,75.36
2022-09-21T23:01:40.148Z,75.48
2022-09-21T23:04:13.306Z,76.11
2022-09-21T23:06:42.564Z,75.92
2022-09-21T23:09:20.174Z,76.30
2022-09-21T23:11:53.138Z,76.22
2022-09-21T23:14:21.212Z,76.52
2022-09-21T23:16:48.409Z,77.05
2022-09-21T23:19:18.130Z,77.11
2022-09-21T23:21:49.384Z,76.97
2022-09-21T23:24:16.730Z,76.83
2022-09-21T23:26:43.605Z,76.88
2022-09-21T23:29:12.869Z,76.76
2022-09-21T23:31:44.447Z,76.29
2022-09-21T23:34:14.960Z,76.79
2022-09-21T23:36:42.553Z,77.47
2022-09-21T23:39:14.030Z,77.20
2022-09-21T23:41:41.272Z,77.27
2022-09-21T23:44:08.141Z,77.24
2022-09-21T23:46:37.192Z,77.31
2022-09-21T23:49:04.975Z,77.61
2022-09-21T23:51:31.930Z,77.98
2022-09-21T23:53:59.757Z,78.00
2022-09-21T23:56:28.223Z,77.87
2022-09-21T23:58:55.437Z,78.27
